sensor_id;sensor_type;location;lat;lon;timestamp;P1;durP1;ratioP1;P2;durP2;ratioP2
18407;SDS011;9330;52.210;21.174;2022-08-25T00:02:02;9.27;;;2.67;;
18407;SDS011;9330;52.210;21.174;2022-08-25T00:04:31;11.90;;;3.17;;
18407;SDS011;9330;52.210;21.174;2022-08-25T00:06:59;6.95;;;2.63;;
18407;SDS011;9330;52.210;21.174;2022-08-25T00:09:26;9.70;;;2.88;;
18407;SDS011;9330;52.210;21.174;2022-08-25T00:11:53;10.75;;;3.17;;
18407;SDS011;9330;52.210;21.174;2022-08-25T00:14:21;10.68;;;3.00;;
18407;SDS011;9330;52.210;21.174;2022-08-25T00:16:52;13.38;;;3.47;;
18407;SDS011;9330;52.210;21.174;2022-08-25T00:19:21;8.25;;;3.05;;
18407;SDS011;9330;52.210;21.174;2022-08-25T00:21:50;12.65;;;3.08;;
18407;SDS011;9330;52.210;21.174;2022-08-25T00:24:17;7.13;;;2.70;;
18407;SDS011;9330;52.210;21.174;2022-08-25T00:26:47;9.13;;;3.10;;
18407;SDS011;9330;52.210;21.174;2022-08-25T00:29:16;8.48;;;3.13;;
18407;SDS011;9330;52.210;21.174;2022-08-25T00:31:43;7.13;;;2.80;;
18407;SDS011;9330;52.210;21.174;2022-08-25T00:34:13;10.55;;;2.90;;
18407;SDS011;9330;52.210;21.174;2022-08-25T00:36:43;9.23;;;3.47;;
18407;SDS011;9330;52.210;21.174;2022-08-25T00:39:11;8.57;;;3.10;;
18407;SDS011;9330;52.210;21.174;2022-08-25T00:41:40;5.63;;;2.72;;
18407;SDS011;9330;52.210;21.174;2022-08-25T00:44:09;9.63;;;3.45;;
18407;SDS011;9330;52.210;21.174;2022-08-25T00:46:39;8.80;;;2.53;;
18407;SDS011;9330;52.210;21.174;2022-08-25T00:49:09;8.15;;;2.50;;
18407;SDS011;9330;52.210;21.174;2022-08-25T00:51:41;7.85;;;2.70;;
18407;SDS011;9330;52.210;21.174;2022-08-25T00:54:14;8.63;;;2.33;;
18407;SDS011;9330;52.210;21.174;2022-08-25T00:56:43;12.48;;;3.05;;
18407;SDS011;9330;52.210;21.174;2022-08-25T00:59:11;11.38;;;3.13;;
18407;SDS011;9330;52.210;21.174;2022-08-25T01:01:39;11.55;;;2.90;;
18407;SDS011;9330;52.210;21.174;2022-08-25T01:04:06;5.72;;;2.78;;
18407;SDS011;9330;52.210;21.174;2022-08-25T01:06:34;8.68;;;3.45;;
18407;SDS011;9330;52.210;21.174;2022-08-25T01:09:05;9.50;;;3.20;;
18407;SDS011;9330;52.210;21.174;2022-08-25T01:11:33;8.10;;;2.78;;
18407;SDS011;9330;52.210;21.174;2022-08-25T01:14:00;9.82;;;3.22;;
18407;SDS011;9330;52.210;21.174;2022-08-25T01:16:31;8.68;;;2.92;;
18407;SDS011;9330;52.210;21.174;2022-08-25T01:18:59;12.80;;;3.58;;
18407;SDS011;9330;52.210;21.174;2022-08-25T01:21:28;10.07;;;3.25;;
18407;SDS011;9330;52.210;21.174;2022-08-25T01:23:57;11.02;;;3.25;;
18407;SDS011;9330;52.210;21.174;2022-08-25T01:26:26;11.55;;;3.50;;
18407;SDS011;9330;52.210;21.174;2022-08-25T01:28:55;9.40;;;3.38;;
18407;SDS011;9330;52.210;21.174;2022-08-25T01:31:41;8.60;;;3.53;;
18407;SDS011;9330;52.210;21.174;2022-08-25T01:34:08;6.93;;;2.97;;
18407;SDS011;9330;52.210;21.174;2022-08-25T01:36:38;12.85;;;3.78;;
18407;SDS011;9330;52.210;21.174;2022-08-25T01:39:06;10.80;;;3.17;;
18407;SDS011;9330;52.210;21.174;2022-08-25T01:41:35;10.85;;;3.17;;
18407;SDS011;9330;52.210;21.174;2022-08-25T01:44:06;6.32;;;3.05;;
18407;SDS011;9330;52.210;21.174;2022-08-25T01:46:33;12.65;;;3.80;;
18407;SDS011;9330;52.210;21.174;2022-08-25T01:49:01;14.15;;;4.20;;
18407;SDS011;9330;52.210;21.174;2022-08-25T01:51:33;9.80;;;3.60;;
18407;SDS011;9330;52.210;21.174;2022-08-25T01:54:05;9.60;;;3.83;;
18407;SDS011;9330;52.210;21.174;2022-08-25T01:56:32;7.03;;;3.60;;
18407;SDS011;9330;52.210;21.174;2022-08-25T01:58:59;10.90;;;4.45;;
18407;SDS011;9330;52.210;21.174;2022-08-25T02:01:26;9.38;;;3.58;;
18407;SDS011;9330;52.210;21.174;2022-08-25T02:03:53;9.65;;;3.90;;
18407;SDS011;9330;52.210;21.174;2022-08-25T02:06:22;9.52;;;3.75;;
18407;SDS011;9330;52.210;21.174;2022-08-25T02:08:53;7.00;;;3.47;;
18407;SDS011;9330;52.210;21.174;2022-08-25T02:11:24;8.68;;;4.30;;
18407;SDS011;9330;52.210;21.174;2022-08-25T02:13:52;12.65;;;4.28;;
18407;SDS011;9330;52.210;21.174;2022-08-25T02:16:20;8.80;;;3.83;;
18407;SDS011;9330;52.210;21.174;2022-08-25T02:18:50;11.32;;;3.90;;
18407;SDS011;9330;52.210;21.174;2022-08-25T02:21:17;12.20;;;4.03;;
18407;SDS011;9330;52.210;21.174;2022-08-25T02:23:45;12.82;;;4.15;;
18407;SDS011;9330;52.210;21.174;2022-08-25T02:26:12;14.63;;;4.68;;
18407;SDS011;9330;52.210;21.174;2022-08-25T02:28:42;7.53;;;4.03;;
18407;SDS011;9330;52.210;21.174;2022-08-25T02:31:09;11.57;;;4.70;;
18407;SDS011;9330;52.210;21.174;2022-08-25T02:33:36;10.75;;;4.18;;
18407;SDS011;9330;52.210;21.174;2022-08-25T02:36:03;8.93;;;4.20;;
18407;SDS011;9330;52.210;21.174;2022-08-25T02:38:31;12.68;;;4.45;;
18407;SDS011;9330;52.210;21.174;2022-08-25T02:40:59;10.45;;;4.05;;
18407;SDS011;9330;52.210;21.174;2022-08-25T02:43:26;12.63;;;4.53;;
18407;SDS011;9330;52.210;21.174;2022-08-25T02:45:55;19.02;;;5.40;;
18407;SDS011;9330;52.210;21.174;2022-08-25T02:48:23;8.30;;;4.40;;
18407;SDS011;9330;52.210;21.174;2022-08-25T02:50:51;15.45;;;4.55;;
18407;SDS011;9330;52.210;21.174;2022-08-25T02:53:18;11.57;;;4.30;;
18407;SDS011;9330;52.210;21.174;2022-08-25T02:55:45;14.27;;;4.43;;
18407;SDS011;9330;52.210;21.174;2022-08-25T02:58:12;14.15;;;5.30;;
18407;SDS011;9330;52.210;21.174;2022-08-25T03:00:39;15.68;;;5.07;;
18407;SDS011;9330;52.210;21.174;2022-08-25T03:03:08;15.95;;;4.88;;
18407;SDS011;9330;52.210;21.174;2022-08-25T03:05:35;14.15;;;4.90;;
18407;SDS011;9330;52.210;21.174;2022-08-25T03:08:02;9.23;;;4.88;;
18407;SDS011;9330;52.210;21.174;2022-08-25T03:10:29;15.63;;;5.35;;
18407;SDS011;9330;52.210;21.174;2022-08-25T03:12:56;10.65;;;4.63;;
18407;SDS011;9330;52.210;21.174;2022-08-25T03:15:23;12.90;;;4.63;;
18407;SDS011;9330;52.210;21.174;2022-08-25T03:17:51;14.02;;;4.47;;
18407;SDS011;9330;52.210;21.174;2022-08-25T03:20:20;11.63;;;4.60;;
18407;SDS011;9330;52.210;21.174;2022-08-25T03:22:48;15.30;;;5.05;;
18407;SDS011;9330;52.210;21.174;2022-08-25T03:25:15;16.40;;;5.25;;
18407;SDS011;9330;52.210;21.174;2022-08-25T03:28:00;11.57;;;4.72;;
18407;SDS011;9330;52.210;21.174;2022-08-25T03:30:27;12.35;;;4.95;;
18407;SDS011;9330;52.210;21.174;2022-08-25T03:32:55;13.15;;;5.22;;
18407;SDS011;9330;52.210;21.174;2022-08-25T03:35:23;12.85;;;5.22;;
18407;SDS011;9330;52.210;21.174;2022-08-25T03:37:53;15.55;;;4.90;;
18407;SDS011;9330;52.210;21.174;2022-08-25T03:40:21;18.65;;;5.43;;
18407;SDS011;9330;52.210;21.174;2022-08-25T03:42:48;16.20;;;4.70;;
18407;SDS011;9330;52.210;21.174;2022-08-25T03:45:15;12.82;;;4.72;;
18407;SDS011;9330;52.210;21.174;2022-08-25T03:47:44;15.02;;;5.43;;
18407;SDS011;9330;52.210;21.174;2022-08-25T03:50:13;15.80;;;5.60;;
18407;SDS011;9330;52.210;21.174;2022-08-25T03:52:42;17.85;;;6.72;;
18407;SDS011;9330;52.210;21.174;2022-08-25T03:55:10;15.63;;;6.00;;
18407;SDS011;9330;52.210;21.174;2022-08-25T03:57:39;18.42;;;5.82;;
18407;SDS011;9330;52.210;21.174;2022-08-25T04:00:07;13.60;;;5.60;;
18407;SDS011;9330;52.210;21.174;2022-08-25T04:02:37;14.18;;;5.63;;
18407;SDS011;9330;52.210;21.174;2022-08-25T04:05:04;22.30;;;6.07;;
18407;SDS011;9330;52.210;21.174;2022-08-25T04:07:31;17.55;;;5.97;;
18407;SDS011;9330;52.210;21.174;2022-08-25T04:10:00;13.73;;;5.70;;
18407;SDS011;9330;52.210;21.174;2022-08-25T04:12:26;16.35;;;5.70;;
18407;SDS011;9330;52.210;21.174;2022-08-25T04:14:53;16.65;;;5.95;;
18407;SDS011;9330;52.210;21.174;2022-08-25T04:17:20;19.65;;;6.35;;
18407;SDS011;9330;52.210;21.174;2022-08-25T04:19:47;17.98;;;6.07;;
18407;SDS011;9330;52.210;21.174;2022-08-25T04:22:15;19.17;;;6.50;;
18407;SDS011;9330;52.210;21.174;2022-08-25T04:24:42;16.05;;;6.07;;
18407;SDS011;9330;52.210;21.174;2022-08-25T04:27:10;18.80;;;6.15;;
18407;SDS011;9330;52.210;21.174;2022-08-25T04:29:37;17.08;;;5.95;;
18407;SDS011;9330;52.210;21.174;2022-08-25T04:32:04;23.95;;;7.22;;
18407;SDS011;9330;52.210;21.174;2022-08-25T04:34:32;16.48;;;7.40;;
18407;SDS011;9330;52.210;21.174;2022-08-25T04:37:00;13.88;;;6.47;;
18407;SDS011;9330;52.210;21.174;2022-08-25T04:39:30;16.42;;;6.95;;
18407;SDS011;9330;52.210;21.174;2022-08-25T04:41:57;16.75;;;6.38;;
18407;SDS011;9330;52.210;21.174;2022-08-25T04:44:26;18.85;;;6.63;;
18407;SDS011;9330;52.210;21.174;2022-08-25T04:46:54;14.50;;;5.93;;
18407;SDS011;9330;52.210;21.174;2022-08-25T04:49:21;13.65;;;6.65;;
18407;SDS011;9330;52.210;21.174;2022-08-25T04:51:48;23.90;;;6.43;;
18407;SDS011;9330;52.210;21.174;2022-08-25T04:54:16;27.90;;;7.13;;
18407;SDS011;9330;52.210;21.174;2022-08-25T04:56:45;18.98;;;7.07;;
18407;SDS011;9330;52.210;21.174;2022-08-25T04:59:14;17.30;;;6.90;;
18407;SDS011;9330;52.210;21.174;2022-08-25T05:01:43;14.45;;;6.32;;
18407;SDS011;9330;52.210;21.174;2022-08-25T05:04:12;16.02;;;6.40;;
18407;SDS011;9330;52.210;21.174;2022-08-25T05:06:40;22.90;;;7.07;;
18407;SDS011;9330;52.210;21.174;2022-08-25T05:09:08;17.52;;;7.43;;
18407;SDS011;9330;52.210;21.174;2022-08-25T05:11:35;18.42;;;6.93;;
18407;SDS011;9330;52.210;21.174;2022-08-25T05:14:03;16.83;;;7.20;;
18407;SDS011;9330;52.210;21.174;2022-08-25T05:16:35;21.65;;;7.55;;
18407;SDS011;9330;52.210;21.174;2022-08-25T05:19:04;26.42;;;7.32;;
18407;SDS011;9330;52.210;21.174;2022-08-25T05:21:31;22.30;;;7.00;;
18407;SDS011;9330;52.210;21.174;2022-08-25T05:23:59;18.20;;;6.38;;
18407;SDS011;9330;52.210;21.174;2022-08-25T05:26:28;16.52;;;6.53;;
18407;SDS011;9330;52.210;21.174;2022-08-25T05:28:57;20.58;;;7.40;;
18407;SDS011;9330;52.210;21.174;2022-08-25T05:31:25;18.90;;;6.85;;
18407;SDS011;9330;52.210;21.174;2022-08-25T05:33:53;20.48;;;6.60;;
18407;SDS011;9330;52.210;21.174;2022-08-25T05:36:22;24.35;;;7.25;;
18407;SDS011;9330;52.210;21.174;2022-08-25T05:38:50;19.17;;;7.07;;
18407;SDS011;9330;52.210;21.174;2022-08-25T05:41:17;22.77;;;7.13;;
18407;SDS011;9330;52.210;21.174;2022-08-25T05:43:46;22.95;;;7.68;;
18407;SDS011;9330;52.210;21.174;2022-08-25T05:46:15;27.42;;;8.15;;
18407;SDS011;9330;52.210;21.174;2022-08-25T05:48:43;18.17;;;7.50;;
18407;SDS011;9330;52.210;21.174;2022-08-25T05:51:11;15.23;;;6.22;;
18407;SDS011;9330;52.210;21.174;2022-08-25T05:53:41;17.77;;;6.82;;
18407;SDS011;9330;52.210;21.174;2022-08-25T05:56:09;22.35;;;7.07;;
18407;SDS011;9330;52.210;21.174;2022-08-25T05:58:38;15.82;;;6.43;;
18407;SDS011;9330;52.210;21.174;2022-08-25T06:01:05;19.00;;;7.05;;
18407;SDS011;9330;52.210;21.174;2022-08-25T06:03:50;17.95;;;7.22;;
18407;SDS011;9330;52.210;21.174;2022-08-25T06:06:18;18.13;;;6.85;;
18407;SDS011;9330;52.210;21.174;2022-08-25T06:08:47;18.35;;;6.75;;
18407;SDS011;9330;52.210;21.174;2022-08-25T06:11:15;18.42;;;6.47;;
18407;SDS011;9330;52.210;21.174;2022-08-25T06:13:42;15.07;;;6.07;;
18407;SDS011;9330;52.210;21.174;2022-08-25T06:16:10;29.88;;;7.88;;
18407;SDS011;9330;52.210;21.174;2022-08-25T06:18:37;17.73;;;6.90;;
18407;SDS011;9330;52.210;21.174;2022-08-25T06:21:08;20.58;;;6.68;;
18407;SDS011;9330;52.210;21.174;2022-08-25T06:23:36;17.38;;;6.35;;
18407;SDS011;9330;52.210;21.174;2022-08-25T06:26:05;21.83;;;6.80;;
18407;SDS011;9330;52.210;21.174;2022-08-25T06:28:35;17.83;;;6.03;;
18407;SDS011;9330;52.210;21.174;2022-08-25T06:31:02;15.43;;;6.95;;
18407;SDS011;9330;52.210;21.174;2022-08-25T06:33:29;18.88;;;6.60;;
18407;SDS011;9330;52.210;21.174;2022-08-25T06:35:56;18.08;;;6.65;;
18407;SDS011;9330;52.210;21.174;2022-08-25T06:38:23;18.05;;;6.53;;
18407;SDS011;9330;52.210;21.174;2022-08-25T06:40:50;19.02;;;7.32;;
18407;SDS011;9330;52.210;21.174;2022-08-25T06:43:19;16.45;;;6.72;;
18407;SDS011;9330;52.210;21.174;2022-08-25T06:45:46;14.88;;;6.53;;
18407;SDS011;9330;52.210;21.174;2022-08-25T06:48:13;21.00;;;7.20;;
18407;SDS011;9330;52.210;21.174;2022-08-25T06:50:40;16.58;;;7.05;;
18407;SDS011;9330;52.210;21.174;2022-08-25T06:53:08;21.42;;;8.00;;
18407;SDS011;9330;52.210;21.174;2022-08-25T06:55:35;18.13;;;7.18;;
18407;SDS011;9330;52.210;21.174;2022-08-25T06:58:03;27.45;;;7.13;;
18407;SDS011;9330;52.210;21.174;2022-08-25T07:00:32;14.57;;;6.40;;
18407;SDS011;9330;52.210;21.174;2022-08-25T07:02:59;16.80;;;6.03;;
18407;SDS011;9330;52.210;21.174;2022-08-25T07:05:26;19.17;;;6.78;;
18407;SDS011;9330;52.210;21.174;2022-08-25T07:07:54;16.00;;;6.75;;
18407;SDS011;9330;52.210;21.174;2022-08-25T07:10:21;10.40;;;5.82;;
18407;SDS011;9330;52.210;21.174;2022-08-25T07:12:48;14.85;;;6.05;;
18407;SDS011;9330;52.210;21.174;2022-08-25T07:15:15;14.75;;;6.75;;
18407;SDS011;9330;52.210;21.174;2022-08-25T07:17:44;13.00;;;6.13;;
18407;SDS011;9330;52.210;21.174;2022-08-25T07:20:11;17.65;;;6.03;;
18407;SDS011;9330;52.210;21.174;2022-08-25T07:22:38;14.98;;;6.28;;
18407;SDS011;9330;52.210;21.174;2022-08-25T07:25:05;15.88;;;7.00;;
18407;SDS011;9330;52.210;21.174;2022-08-25T07:27:33;15.98;;;6.88;;
18407;SDS011;9330;52.210;21.174;2022-08-25T07:30:00;16.38;;;6.05;;
18407;SDS011;9330;52.210;21.174;2022-08-25T07:32:27;14.07;;;5.55;;
18407;SDS011;9330;52.210;21.174;2022-08-25T07:34:56;17.98;;;7.00;;
18407;SDS011;9330;52.210;21.174;2022-08-25T07:37:41;21.65;;;6.07;;
18407;SDS011;9330;52.210;21.174;2022-08-25T07:40:10;13.93;;;5.78;;
18407;SDS011;9330;52.210;21.174;2022-08-25T07:42:39;15.57;;;6.50;;
18407;SDS011;9330;52.210;21.174;2022-08-25T07:45:07;12.70;;;5.85;;
18407;SDS011;9330;52.210;21.174;2022-08-25T07:47:35;10.68;;;5.65;;
18407;SDS011;9330;52.210;21.174;2022-08-25T07:50:05;16.27;;;5.80;;
18407;SDS011;9330;52.210;21.174;2022-08-25T07:52:33;14.30;;;5.88;;
18407;SDS011;9330;52.210;21.174;2022-08-25T07:55:00;12.70;;;5.82;;
18407;SDS011;9330;52.210;21.174;2022-08-25T07:57:27;18.60;;;6.20;;
18407;SDS011;9330;52.210;21.174;2022-08-25T07:59:55;22.80;;;5.93;;
18407;SDS011;9330;52.210;21.174;2022-08-25T08:02:22;12.75;;;5.47;;
18407;SDS011;9330;52.210;21.174;2022-08-25T08:04:50;11.50;;;5.47;;
18407;SDS011;9330;52.210;21.174;2022-08-25T08:07:20;12.25;;;5.47;;
18407;SDS011;9330;52.210;21.174;2022-08-25T08:09:49;13.93;;;6.10;;
18407;SDS011;9330;52.210;21.174;2022-08-25T08:12:16;13.48;;;5.63;;
18407;SDS011;9330;52.210;21.174;2022-08-25T08:14:43;9.35;;;5.72;;
18407;SDS011;9330;52.210;21.174;2022-08-25T08:17:10;12.35;;;5.63;;
18407;SDS011;9330;52.210;21.174;2022-08-25T08:19:38;11.90;;;5.68;;
18407;SDS011;9330;52.210;21.174;2022-08-25T08:22:05;23.27;;;6.57;;
18407;SDS011;9330;52.210;21.174;2022-08-25T08:24:36;11.18;;;5.57;;
18407;SDS011;9330;52.210;21.174;2022-08-25T08:27:04;14.80;;;5.55;;
18407;SDS011;9330;52.210;21.174;2022-08-25T08:29:32;11.98;;;5.45;;
18407;SDS011;9330;52.210;21.174;2022-08-25T08:32:00;14.45;;;5.90;;
18407;SDS011;9330;52.210;21.174;2022-08-25T08:34:27;14.52;;;6.22;;
18407;SDS011;9330;52.210;21.174;2022-08-25T08:36:54;14.75;;;5.78;;
18407;SDS011;9330;52.210;21.174;2022-08-25T08:39:21;13.80;;;5.82;;
18407;SDS011;9330;52.210;21.174;2022-08-25T08:44:53;13.65;;;6.20;;
18407;SDS011;9330;52.210;21.174;2022-08-25T08:47:32;13.70;;;5.10;;
18407;SDS011;9330;52.210;21.174;2022-08-25T08:50:06;15.77;;;5.07;;
18407;SDS011;9330;52.210;21.174;2022-08-25T08:52:45;14.05;;;6.15;;
18407;SDS011;9330;52.210;21.174;2022-08-25T08:55:18;10.82;;;5.03;;
18407;SDS011;9330;52.210;21.174;2022-08-25T08:57:51;17.55;;;5.45;;
18407;SDS011;9330;52.210;21.174;2022-08-25T09:00:20;9.02;;;4.80;;
18407;SDS011;9330;52.210;21.174;2022-08-25T09:02:49;5.90;;;4.28;;
18407;SDS011;9330;52.210;21.174;2022-08-25T09:05:19;10.15;;;4.00;;
18407;SDS011;9330;52.210;21.174;2022-08-25T09:07:49;8.55;;;3.63;;
18407;SDS011;9330;52.210;21.174;2022-08-25T09:10:20;10.52;;;4.65;;
18407;SDS011;9330;52.210;21.174;2022-08-25T09:12:57;8.70;;;3.63;;
18407;SDS011;9330;52.210;21.174;2022-08-25T09:15:35;6.95;;;3.75;;
18407;SDS011;9330;52.210;21.174;2022-08-25T09:18:28;8.70;;;4.07;;
18407;SDS011;9330;52.210;21.174;2022-08-25T09:21:02;12.25;;;4.53;;
18407;SDS011;9330;52.210;21.174;2022-08-25T09:23:41;10.68;;;3.90;;
18407;SDS011;9330;52.210;21.174;2022-08-25T09:26:23;6.35;;;3.70;;
18407;SDS011;9330;52.210;21.174;2022-08-25T09:29:00;9.85;;;3.83;;
18407;SDS011;9330;52.210;21.174;2022-08-25T09:31:30;8.95;;;3.80;;
18407;SDS011;9330;52.210;21.174;2022-08-25T09:34:00;7.15;;;3.78;;
18407;SDS011;9330;52.210;21.174;2022-08-25T09:36:29;9.93;;;3.58;;
18407;SDS011;9330;52.210;21.174;2022-08-25T09:38:57;6.95;;;3.50;;
18407;SDS011;9330;52.210;21.174;2022-08-25T09:41:35;7.45;;;3.30;;
18407;SDS011;9330;52.210;21.174;2022-08-25T09:44:19;7.57;;;3.70;;
18407;SDS011;9330;52.210;21.174;2022-08-25T09:46:56;6.57;;;3.38;;
18407;SDS011;9330;52.210;21.174;2022-08-25T09:49:30;10.35;;;3.33;;
18407;SDS011;9330;52.210;21.174;2022-08-25T09:52:22;7.20;;;3.17;;
18407;SDS011;9330;52.210;21.174;2022-08-25T09:54:52;7.55;;;3.28;;
18407;SDS011;9330;52.210;21.174;2022-08-25T09:57:27;7.53;;;2.90;;
18407;SDS011;9330;52.210;21.174;2022-08-25T10:00:09;8.18;;;2.70;;
18407;SDS011;9330;52.210;21.174;2022-08-25T10:02:40;4.93;;;2.55;;
18407;SDS011;9330;52.210;21.174;2022-08-25T10:05:16;5.97;;;3.00;;
18407;SDS011;9330;52.210;21.174;2022-08-25T10:07:48;9.40;;;2.92;;
18407;SDS011;9330;52.210;21.174;2022-08-25T10:10:19;9.85;;;2.75;;
18407;SDS011;9330;52.210;21.174;2022-08-25T10:12:50;6.85;;;2.60;;
18407;SDS011;9330;52.210;21.174;2022-08-25T10:15:21;5.03;;;2.72;;
18407;SDS011;9330;52.210;21.174;2022-08-25T10:17:50;5.05;;;2.75;;
18407;SDS011;9330;52.210;21.174;2022-08-25T10:20:20;7.10;;;2.95;;
18407;SDS011;9330;52.210;21.174;2022-08-25T10:22:48;4.80;;;2.60;;
18407;SDS011;9330;52.210;21.174;2022-08-25T10:25:23;10.82;;;2.58;;
18407;SDS011;9330;52.210;21.174;2022-08-25T10:27:57;5.60;;;2.03;;
18407;SDS011;9330;52.210;21.174;2022-08-25T10:30:32;3.45;;;2.17;;
18407;SDS011;9330;52.210;21.174;2022-08-25T10:33:12;4.03;;;2.25;;
18407;SDS011;9330;52.210;21.174;2022-08-25T10:35:47;5.95;;;2.72;;
18407;SDS011;9330;52.210;21.174;2022-08-25T10:38:27;5.25;;;2.70;;
18407;SDS011;9330;52.210;21.174;2022-08-25T10:41:08;6.75;;;2.47;;
18407;SDS011;9330;52.210;21.174;2022-08-25T10:43:57;8.50;;;2.90;;
18407;SDS011;9330;52.210;21.174;2022-08-25T10:46:58;5.40;;;2.67;;
18407;SDS011;9330;52.210;21.174;2022-08-25T10:49:42;5.05;;;3.05;;
18407;SDS011;9330;52.210;21.174;2022-08-25T10:52:12;5.47;;;2.40;;
18407;SDS011;9330;52.210;21.174;2022-08-25T10:54:47;5.72;;;2.53;;
18407;SDS011;9330;52.210;21.174;2022-08-25T10:57:26;4.22;;;2.33;;
18407;SDS011;9330;52.210;21.174;2022-08-25T10:59:59;7.18;;;2.55;;
18407;SDS011;9330;52.210;21.174;2022-08-25T11:02:43;3.78;;;2.10;;
18407;SDS011;9330;52.210;21.174;2022-08-25T11:05:24;8.10;;;2.50;;
18407;SDS011;9330;52.210;21.174;2022-08-25T11:07:53;5.50;;;2.50;;
18407;SDS011;9330;52.210;21.174;2022-08-25T11:10:28;5.22;;;2.67;;
18407;SDS011;9330;52.210;21.174;2022-08-25T11:13:14;5.07;;;2.60;;
18407;SDS011;9330;52.210;21.174;2022-08-25T11:15:48;8.77;;;2.60;;
18407;SDS011;9330;52.210;21.174;2022-08-25T11:18:19;6.93;;;2.55;;
18407;SDS011;9330;52.210;21.174;2022-08-25T11:20:49;7.43;;;2.55;;
18407;SDS011;9330;52.210;21.174;2022-08-25T11:23:27;6.18;;;2.78;;
18407;SDS011;9330;52.210;21.174;2022-08-25T11:26:02;5.10;;;2.72;;
18407;SDS011;9330;52.210;21.174;2022-08-25T11:28:38;10.75;;;3.33;;
18407;SDS011;9330;52.210;21.174;2022-08-25T11:31:14;4.90;;;2.83;;
18407;SDS011;9330;52.210;21.174;2022-08-25T11:33:44;5.00;;;2.30;;
18407;SDS011;9330;52.210;21.174;2022-08-25T11:36:11;4.05;;;2.38;;
18407;SDS011;9330;52.210;21.174;2022-08-25T11:38:48;6.95;;;2.60;;
18407;SDS011;9330;52.210;21.174;2022-08-25T11:41:26;2.83;;;2.10;;
18407;SDS011;9330;52.210;21.174;2022-08-25T11:44:02;4.10;;;2.95;;
18407;SDS011;9330;52.210;21.174;2022-08-25T11:47:07;7.00;;;2.60;;
18407;SDS011;9330;52.210;21.174;2022-08-25T11:49:50;6.65;;;2.45;;
18407;SDS011;9330;52.210;21.174;2022-08-25T11:52:40;5.50;;;2.78;;
18407;SDS011;9330;52.210;21.174;2022-08-25T11:55:14;3.83;;;2.45;;
18407;SDS011;9330;52.210;21.174;2022-08-25T11:57:43;5.75;;;2.78;;
18407;SDS011;9330;52.210;21.174;2022-08-25T12:00:12;4.00;;;2.17;;
18407;SDS011;9330;52.210;21.174;2022-08-25T12:02:42;6.65;;;2.10;;
18407;SDS011;9330;52.210;21.174;2022-08-25T12:17:16;5.18;;;2.47;;
18407;SDS011;9330;52.210;21.174;2022-08-25T12:19:55;4.85;;;3.10;;
18407;SDS011;9330;52.210;21.174;2022-08-25T12:22:40;5.35;;;3.25;;
18407;SDS011;9330;52.210;21.174;2022-08-25T12:28:26;4.53;;;2.50;;
18407;SDS011;9330;52.210;21.174;2022-08-25T12:31:06;4.78;;;2.35;;
18407;SDS011;9330;52.210;21.174;2022-08-25T12:33:45;6.80;;;2.83;;
18407;SDS011;9330;52.210;21.174;2022-08-25T12:36:25;4.95;;;2.45;;
18407;SDS011;9330;52.210;21.174;2022-08-25T12:38:55;7.07;;;2.88;;
18407;SDS011;9330;52.210;21.174;2022-08-25T12:41:51;3.67;;;2.20;;
18407;SDS011;9330;52.210;21.174;2022-08-25T12:44:35;6.10;;;2.50;;
18407;SDS011;9330;52.210;21.174;2022-08-25T12:47:13;4.85;;;2.10;;
18407;SDS011;9330;52.210;21.174;2022-08-25T12:49:52;3.70;;;2.38;;
18407;SDS011;9330;52.210;21.174;2022-08-25T12:52:53;3.70;;;2.38;;
18407;SDS011;9330;52.210;21.174;2022-08-25T12:55:23;6.10;;;2.92;;
18407;SDS011;9330;52.210;21.174;2022-08-25T12:57:54;2.70;;;2.15;;
18407;SDS011;9330;52.210;21.174;2022-08-25T13:00:25;4.43;;;2.03;;
18407;SDS011;9330;52.210;21.174;2022-08-25T13:03:08;3.05;;;2.35;;
18407;SDS011;9330;52.210;21.174;2022-08-25T13:09:09;4.25;;;2.38;;
18407;SDS011;9330;52.210;21.174;2022-08-25T13:12:04;3.55;;;2.33;;
18407;SDS011;9330;52.210;21.174;2022-08-25T13:14:42;3.53;;;2.58;;
18407;SDS011;9330;52.210;21.174;2022-08-25T13:17:11;11.57;;;3.08;;
18407;SDS011;9330;52.210;21.174;2022-08-25T13:19:50;4.82;;;2.13;;
18407;SDS011;9330;52.210;21.174;2022-08-25T13:22:17;3.75;;;2.40;;
18407;SDS011;9330;52.210;21.174;2022-08-25T13:24:45;5.00;;;2.33;;
18407;SDS011;9330;52.210;21.174;2022-08-25T13:27:17;4.15;;;2.13;;
18407;SDS011;9330;52.210;21.174;2022-08-25T13:29:51;5.80;;;2.40;;
18407;SDS011;9330;52.210;21.174;2022-08-25T13:32:24;7.55;;;2.97;;
18407;SDS011;9330;52.210;21.174;2022-08-25T13:34:54;5.30;;;2.20;;
18407;SDS011;9330;52.210;21.174;2022-08-25T13:37:36;3.90;;;2.15;;
18407;SDS011;9330;52.210;21.174;2022-08-25T13:40:09;3.15;;;2.35;;
18407;SDS011;9330;52.210;21.174;2022-08-25T13:42:41;5.10;;;2.42;;
18407;SDS011;9330;52.210;21.174;2022-08-25T13:45:13;8.05;;;2.38;;
18407;SDS011;9330;52.210;21.174;2022-08-25T13:47:42;3.67;;;2.45;;
18407;SDS011;9330;52.210;21.174;2022-08-25T13:50:21;7.78;;;2.20;;
18407;SDS011;9330;52.210;21.174;2022-08-25T13:52:56;3.78;;;2.35;;
18407;SDS011;9330;52.210;21.174;2022-08-25T13:55:36;5.00;;;2.20;;
18407;SDS011;9330;52.210;21.174;2022-08-25T13:58:10;3.40;;;2.40;;
18407;SDS011;9330;52.210;21.174;2022-08-25T14:00:43;4.25;;;2.13;;
18407;SDS011;9330;52.210;21.174;2022-08-25T14:03:28;6.57;;;2.65;;
18407;SDS011;9330;52.210;21.174;2022-08-25T14:06:02;3.72;;;2.50;;
18407;SDS011;9330;52.210;21.174;2022-08-25T14:08:31;3.92;;;2.38;;
18407;SDS011;9330;52.210;21.174;2022-08-25T14:11:01;6.53;;;2.33;;
18407;SDS011;9330;52.210;21.174;2022-08-25T14:13:32;4.30;;;2.25;;
18407;SDS011;9330;52.210;21.174;2022-08-25T14:16:08;6.45;;;2.88;;
18407;SDS011;9330;52.210;21.174;2022-08-25T14:18:39;5.05;;;2.63;;
18407;SDS011;9330;52.210;21.174;2022-08-25T14:21:13;8.57;;;2.50;;
18407;SDS011;9330;52.210;21.174;2022-08-25T14:23:41;4.13;;;2.58;;
18407;SDS011;9330;52.210;21.174;2022-08-25T14:26:08;8.35;;;2.85;;
18407;SDS011;9330;52.210;21.174;2022-08-25T14:28:35;3.95;;;2.42;;
18407;SDS011;9330;52.210;21.174;2022-08-25T14:31:03;3.38;;;2.55;;
18407;SDS011;9330;52.210;21.174;2022-08-25T14:33:35;4.97;;;2.60;;
18407;SDS011;9330;52.210;21.174;2022-08-25T14:36:04;4.38;;;2.30;;
18407;SDS011;9330;52.210;21.174;2022-08-25T14:38:32;3.40;;;1.98;;
18407;SDS011;9330;52.210;21.174;2022-08-25T14:40:59;4.75;;;2.35;;
18407;SDS011;9330;52.210;21.174;2022-08-25T14:43:26;5.50;;;2.13;;
18407;SDS011;9330;52.210;21.174;2022-08-25T14:45:53;3.67;;;2.00;;
18407;SDS011;9330;52.210;21.174;2022-08-25T14:48:23;4.05;;;1.90;;
18407;SDS011;9330;52.210;21.174;2022-08-25T14:50:53;5.68;;;2.35;;
18407;SDS011;9330;52.210;21.174;2022-08-25T14:53:22;7.60;;;1.95;;
18407;SDS011;9330;52.210;21.174;2022-08-25T14:55:49;4.75;;;2.20;;
18407;SDS011;9330;52.210;21.174;2022-08-25T14:58:18;6.25;;;2.17;;
18407;SDS011;9330;52.210;21.174;2022-08-25T15:00:45;4.40;;;2.40;;
18407;SDS011;9330;52.210;21.174;2022-08-25T15:03:14;6.90;;;2.08;;
18407;SDS011;9330;52.210;21.174;2022-08-25T15:05:43;6.65;;;2.15;;
18407;SDS011;9330;52.210;21.174;2022-08-25T15:08:11;2.33;;;1.98;;
18407;SDS011;9330;52.210;21.174;2022-08-25T15:10:56;4.45;;;2.03;;
18407;SDS011;9330;52.210;21.174;2022-08-25T15:13:23;4.40;;;2.20;;
18407;SDS011;9330;52.210;21.174;2022-08-25T15:15:51;3.15;;;2.20;;
18407;SDS011;9330;52.210;21.174;2022-08-25T15:18:18;6.20;;;2.20;;
18407;SDS011;9330;52.210;21.174;2022-08-25T15:20:46;4.35;;;2.10;;
18407;SDS011;9330;52.210;21.174;2022-08-25T15:23:14;7.75;;;2.50;;
18407;SDS011;9330;52.210;21.174;2022-08-25T15:25:41;5.13;;;2.17;;